Time;durP1;ratioP1;P1;durP2;ratioP2;P2;SDS_P1;SDS_P2;PMS_P1;PMS_P2;Temp;Humidity;BMP_temperature;BMP_pressure;BME280_temperature;BME280_humidity;BME280_pressure;Samples;Min_cycle;Max_cycle;Signal;HPM_P1;HPM_P2
2023/07/17 00:02:39;;;;;;;11.55;4.95;;;;;;;15.04;100.00;101311.00;5112616;28;20089;-77
2023/07/17 00:08:26;;;;;;;13.80;5.00;;;;;;;15.14;100.00;101317.44;5112709;28;20069;-77
2023/07/17 00:14:13;;;;;;;7.43;4.28;;;;;;;15.13;100.00;101314.97;5112662;28;20360;-76
2023/07/17 00:20:01;;;;;;;9.88;4.40;;;;;;;15.16;100.00;101312.63;5112634;28;20042;-76
2023/07/17 00:25:48;;;;;;;10.20;4.97;;;;;;;15.15;100.00;101320.94;5112131;28;20043;-76
2023/07/17 00:31:34;;;;;;;7.50;4.40;;;;;;;15.12;100.00;101310.63;5112325;28;20100;-76
2023/07/17 00:34:00;;;;;;;9.10;5.07;;;;;;;15.19;100.00;101312.16;5103881;28;20476;-76
2023/07/17 00:36:25;;;;;;;10.13;4.30;;;;;;;15.21;100.00;101311.09;5093911;28;20050;-75
2023/07/17 00:38:50;;;;;;;8.40;4.60;;;;;;;15.22;100.00;101310.06;5111301;28;20661;-75
2023/07/17 00:44:38;;;;;;;8.38;4.22;;;;;;;15.13;100.00;101318.50;5112116;28;20683;-75
2023/07/17 00:47:05;;;;;;;6.60;4.75;;;;;;;15.10;100.00;101318.94;5093656;28;20529;-75
2023/07/17 00:52:52;;;;;;;7.85;4.53;;;;;;;15.00;100.00;101321.38;5119273;28;20043;-75
2023/07/17 00:55:18;;;;;;;11.35;4.82;;;;;;;14.98;100.00;101326.19;5118702;28;20031;-75
2023/07/17 01:01:06;;;;;;;10.18;4.43;;;;;;;14.93;100.00;101344.91;5118998;28;20039;-76
2023/07/17 01:03:31;;;;;;;9.85;4.70;;;;;;;14.89;100.00;101341.03;5099602;28;20043;-75
2023/07/17 01:05:57;;;;;;;11.20;4.97;;;;;;;14.84;100.00;101335.53;5118523;28;20047;-76
2023/07/17 01:11:44;;;;;;;10.02;4.78;;;;;;;14.78;100.00;101344.53;5118899;28;20119;-74
2023/07/17 01:14:19;;;;;;;9.93;5.03;;;;;;;14.72;100.00;101348.09;5100148;28;20464;-75
2023/07/17 01:16:48;;;;;;;7.70;4.88;;;;;;;14.69;100.00;101332.41;5117533;28;20122;-75
2023/07/17 01:19:14;;;;;;;10.95;4.18;;;;;;;14.73;100.00;101338.97;5118426;28;20132;-75
2023/07/17 01:22:18;;;;;;;8.18;5.15;;;;;;;14.70;100.00;101345.66;5118602;28;20484;-75
2023/07/17 01:24:44;;;;;;;9.90;4.90;;;;;;;14.66;100.00;101344.47;5087768;28;20043;-75
2023/07/17 01:27:09;;;;;;;10.80;4.53;;;;;;;14.70;100.00;101353.72;5118094;28;20019;-75
2023/07/17 01:29:35;;;;;;;8.40;4.60;;;;;;;14.63;100.00;101354.88;5117439;28;20089;-76
2023/07/17 01:32:00;;;;;;;9.13;4.43;;;;;;;14.60;100.00;101355.31;5099980;28;20027;-76
2023/07/17 01:34:25;;;;;;;9.63;4.93;;;;;;;14.54;100.00;101355.19;5118635;28;20066;-75
2023/07/17 01:40:14;;;;;;;11.68;5.95;;;;;;;14.47;100.00;101364.41;5118431;28;20268;-75
2023/07/17 01:42:40;;;;;;;10.20;4.50;;;;;;;14.44;100.00;101346.81;5099241;28;20043;-75
2023/07/17 01:45:05;;;;;;;9.67;4.80;;;;;;;14.46;100.00;101362.78;5118109;28;20023;-77
2023/07/17 01:50:52;;;;;;;9.18;4.47;;;;;;;14.36;100.00;101340.91;5118570;28;20503;-77
2023/07/17 01:56:39;;;;;;;12.85;4.63;;;;;;;14.32;100.00;101348.63;5117960;28;20402;-76
2023/07/17 02:02:26;;;;;;;10.05;4.95;;;;;;;14.27;100.00;101349.31;5115537;28;20628;-77
2023/07/17 02:04:52;;;;;;;11.00;5.47;;;;;;;14.29;100.00;101353.63;5114580;28;20028;-76
2023/07/17 02:07:17;;;;;;;11.98;4.75;;;;;;;14.24;100.00;101349.75;5113545;28;20339;-77
2023/07/17 02:09:42;;;;;;;10.05;5.57;;;;;;;14.23;100.00;101353.50;5114436;28;20077;-77
2023/07/17 02:12:08;;;;;;;11.13;4.65;;;;;;;14.22;100.00;101351.03;5096032;28;20550;-77
2023/07/17 02:14:34;;;;;;;17.25;6.20;;;;;;;14.17;100.00;101353.56;5095683;28;20055;-76
2023/07/17 02:16:59;;;;;;;11.48;5.07;;;;;;;14.13;100.00;101352.34;5096104;28;20126;-77
2023/07/17 02:19:24;;;;;;;11.32;5.15;;;;;;;14.06;100.00;101344.38;5113463;28;20384;-77
2023/07/17 02:21:50;;;;;;;12.55;5.43;;;;;;;14.06;100.00;101351.63;5096077;28;20028;-78
2023/07/17 02:27:37;;;;;;;10.55;4.93;;;;;;;14.00;100.00;101357.91;5114155;28;20084;-76
2023/07/17 02:30:05;;;;;;;8.32;4.57;;;;;;;13.93;100.00;101356.13;5095840;28;20126;-77
2023/07/17 02:32:31;;;;;;;8.80;4.82;;;;;;;13.93;100.00;101358.81;5113427;28;20442;-75
2023/07/17 02:38:18;;;;;;;10.82;4.60;;;;;;;13.89;100.00;101354.09;5113400;28;20085;-77
2023/07/17 02:40:44;;;;;;;10.45;4.47;;;;;;;13.85;100.00;101361.75;5095702;28;20028;-76
2023/07/17 02:46:30;;;;;;;9.25;4.60;;;;;;;13.85;100.00;101366.31;5114195;28;20074;-75
2023/07/17 02:52:17;;;;;;;11.25;5.25;;;;;;;13.82;100.00;101369.44;5113965;28;20612;-75
2023/07/17 02:54:43;;;;;;;12.70;5.43;;;;;;;13.76;100.00;101368.47;5113715;28;20024;-76
2023/07/17 02:57:10;;;;;;;11.48;4.70;;;;;;;13.70;100.00;101365.88;5112821;28;20285;-75
2023/07/17 02:59:36;;;;;;;11.88;4.93;;;;;;;13.73;100.00;101371.63;5095422;28;20384;-75
2023/07/17 03:02:01;;;;;;;9.18;4.63;;;;;;;13.68;100.00;101370.63;5113628;28;20088;-75
2023/07/17 03:07:48;;;;;;;11.85;4.72;;;;;;;13.66;100.00;101383.47;5113857;28;20379;-75
2023/07/17 03:10:14;;;;;;;9.85;4.82;;;;;;;13.60;100.00;101375.25;5112653;28;20273;-76
2023/07/17 03:12:40;;;;;;;12.15;5.18;;;;;;;13.61;100.00;101387.66;5095203;28;20026;-76
2023/07/17 03:15:06;;;;;;;8.20;4.80;;;;;;;13.57;100.00;101397.16;5113192;28;20088;-76
2023/07/17 03:20:56;;;;;;;11.73;5.03;;;;;;;13.50;100.00;101396.41;5113429;28;20529;-74
2023/07/17 03:23:22;;;;;;;9.38;4.65;;;;;;;13.43;100.00;101384.91;5112379;28;20032;-74
2023/07/17 03:25:47;;;;;;;12.63;5.25;;;;;;;13.48;100.00;101382.38;5113147;28;20024;-75
2023/07/17 03:28:13;;;;;;;8.60;4.47;;;;;;;13.50;100.00;101396.41;5112543;28;20040;-75
2023/07/17 03:30:42;;;;;;;7.50;4.07;;;;;;;13.47;100.00;101396.03;5112849;28;20443;-75
2023/07/17 03:33:08;;;;;;;8.25;4.68;;;;;;;13.43;100.00;101392.97;5094793;28;20030;-75
2023/07/17 03:35:34;;;;;;;12.07;4.63;;;;;;;13.41;100.00;101391.53;5094242;28;20088;-75
2023/07/17 03:37:59;;;;;;;11.23;4.80;;;;;;;13.37;100.00;101391.16;5113495;28;20032;-75
2023/07/17 03:40:24;;;;;;;11.15;4.55;;;;;;;13.37;100.00;101391.16;5094776;28;20036;-76
2023/07/17 03:42:50;;;;;;;13.57;5.32;;;;;;;13.36;100.00;101394.06;5112119;28;20093;-75
2023/07/17 03:48:37;;;;;;;9.93;4.53;;;;;;;13.31;100.00;101395.56;5113067;28;20300;-75
2023/07/17 03:51:03;;;;;;;11.67;5.27;;;;;;;13.31;100.00;101405.47;5112862;28;20023;-75
2023/07/17 03:53:28;;;;;;;12.13;5.15;;;;;;;13.24;100.00;101394.75;5094050;28;20277;-75
2023/07/17 03:55:54;;;;;;;11.43;4.90;;;;;;;13.28;100.00;101403.19;5112423;28;20572;-75
2023/07/17 04:01:40;;;;;;;11.30;4.70;;;;;;;13.25;100.00;101393.72;5112839;28;20261;-75
2023/07/17 04:07:28;;;;;;;7.75;4.80;;;;;;;13.31;100.00;101400.94;5112802;28;20061;-75
2023/07/17 04:09:53;;;;;;;9.10;4.28;;;;;;;13.30;100.00;101393.09;5094299;28;20027;-75
2023/07/17 04:12:18;;;;;;;10.65;5.30;;;;;;;13.43;100.00;101405.56;5112080;28;20046;-75
2023/07/17 04:14:44;;;;;;;12.77;5.30;;;;;;;13.45;100.00;101412.38;5094108;28;20054;-75
2023/07/17 04:20:31;;;;;;;12.80;4.60;;;;;;;13.55;100.00;101418.06;5112458;28;20727;-75
2023/07/17 04:26:18;;;;;;;8.60;4.25;;;;;;;13.63;100.00;101420.50;5112043;28;20514;-75
2023/07/17 04:28:43;;;;;;;10.43;4.50;;;;;;;13.67;100.00;101422.75;5093888;28;20055;-75
2023/07/17 04:34:33;;;;;;;8.70;4.55;;;;;;;13.79;100.00;101437.91;5112550;28;20092;-75
2023/07/17 04:36:58;;;;;;;11.75;5.03;;;;;;;13.87;100.00;101437.63;5112585;28;20028;-75
2023/07/17 04:39:24;;;;;;;10.73;4.78;;;;;;;13.93;100.00;101433.25;5093579;28;20096;-75
2023/07/17 04:41:49;;;;;;;10.30;4.93;;;;;;;14.02;100.00;101447.22;5112159;28;20475;-75
2023/07/17 04:44:14;;;;;;;14.52;6.40;;;;;;;14.14;100.00;101446.25;5111191;28;20273;-74
2023/07/17 04:46:40;;;;;;;17.17;5.53;;;;;;;14.22;100.00;101448.69;5111998;28;20059;-75
2023/07/17 04:49:06;;;;;;;14.88;5.30;;;;;;;14.32;100.00;101455.41;5093623;28;20185;-75
2023/07/17 04:54:53;;;;;;;10.68;5.05;;;;;;;14.55;100.00;101458.28;5112086;28;20273;-76
2023/07/17 05:04:01;;;;;;;10.95;5.47;;;;;;;14.84;100.00;101445.91;5112309;28;20039;-77
2023/07/17 05:09:50;;;;;;;7.80;5.28;;;;;;;15.15;100.00;101458.34;5112423;28;20046;-82
2023/07/17 05:15:37;;;;;;;11.38;5.88;;;;;;;15.81;100.00;101478.91;5109095;28;20066;-81
2023/07/17 05:21:24;;;;;;;10.55;5.43;;;;;;;16.40;100.00;101468.91;5111925;28;20134;-81
2023/07/17 05:27:11;;;;;;;11.38;5.57;;;;;;;17.02;100.00;101474.53;5112425;28;20760;-82
2023/07/17 05:29:37;;;;;;;12.48;6.22;;;;;;;17.38;100.00;101480.63;5093655;28;20031;-81
2023/07/17 05:32:03;;;;;;;14.40;6.53;;;;;;;17.71;100.00;101477.97;5093397;28;20415;-80
2023/07/17 05:34:28;;;;;;;13.60;5.50;;;;;;;17.97;100.00;101481.91;5110772;28;20063;-81
2023/07/17 05:40:15;;;;;;;12.45;5.63;;;;;;;18.66;100.00;101498.59;5115641;28;20078;-80
2023/07/17 05:46:02;;;;;;;10.40;5.65;;;;;;;18.98;100.00;101497.88;5115447;28;20114;-81
2023/07/17 05:51:49;;;;;;;14.48;5.30;;;;;;;19.57;100.00;101506.94;5115494;28;20556;-81
2023/07/17 05:57:36;;;;;;;11.13;4.97;;;;;;;19.97;100.00;101503.75;5115128;28;20667;-81
2023/07/17 06:00:03;;;;;;;15.43;5.47;;;;;;;20.31;99.23;101503.44;5114033;28;20111;-80
2023/07/17 06:05:50;;;;;;;9.80;5.18;;;;;;;20.81;96.97;101521.09;5114867;28;20069;-80
2023/07/17 06:11:37;;;;;;;11.02;4.75;;;;;;;21.47;93.03;101510.44;5114559;28;20407;-78
2023/07/17 06:17:24;;;;;;;12.18;5.65;;;;;;;22.08;87.46;101518.66;5115278;28;20053;-80
2023/07/17 06:23:11;;;;;;;10.52;5.13;;;;;;;22.22;85.67;101525.16;5115621;28;20076;-82
2023/07/17 06:28:58;;;;;;;11.05;5.18;;;;;;;22.76;81.43;101528.00;5114322;28;20304;-79
2023/07/17 06:34:45;;;;;;;12.80;5.57;;;;;;;23.09;79.14;101534.69;5114652;28;20264;-80
2023/07/17 06:40:32;;;;;;;14.05;5.47;;;;;;;23.55;76.64;101539.06;5114503;28;20291;-77
2023/07/17 06:46:19;;;;;;;11.10;4.85;;;;;;;24.21;72.48;101553.03;5114632;28;20055;-76
2023/07/17 06:48:44;;;;;;;10.63;5.22;;;;;;;23.45;73.95;101553.63;5095249;28;20015;-75
2023/07/17 06:51:09;;;;;;;15.50;5.53;;;;;;;23.58;75.63;101544.00;5095071;28;20051;-76
2023/07/17 06:53:35;;;;;;;12.68;5.47;;;;;;;23.76;74.34;101563.25;5095739;28;20030;-76
2023/07/17 06:59:25;;;;;;;11.63;5.07;;;;;;;22.54;77.42;101565.69;5113977;28;20319;-75
2023/07/17 07:05:12;;;;;;;15.18;5.03;;;;;;;24.09;74.10;101566.28;5114487;28;20095;-76
2023/07/17 07:11:00;;;;;;;13.30;5.63;;;;;;;23.55;71.94;101569.94;5113750;28;20331;-77
2023/07/17 07:13:27;;;;;;;10.23;5.15;;;;;;;23.20;74.34;101572.88;5114414;28;20107;-75
2023/07/17 07:19:14;;;;;;;14.95;5.30;;;;;;;23.31;75.46;101585.34;5114520;28;20054;-76
2023/07/17 07:25:00;;;;;;;18.48;5.47;;;;;;;24.20;72.18;101586.94;5113459;28;20271;-79
2023/07/17 07:30:48;;;;;;;12.70;5.43;;;;;;;23.84;69.08;101589.16;5113473;28;20276;-79
2023/07/17 07:33:13;;;;;;;11.32;5.45;;;;;;;24.24;69.52;101590.72;5094955;28;20020;-76
2023/07/17 07:39:00;;;;;;;8.98;4.93;;;;;;;25.13;66.59;101602.13;5113136;28;20050;-75
2023/07/17 07:41:26;;;;;;;11.85;5.07;;;;;;;25.38;64.80;101602.91;5112253;28;20051;-76
2023/07/17 07:47:12;;;;;;;14.33;5.40;;;;;;;26.43;58.59;101599.63;5112245;28;20046;-76
2023/07/17 07:52:59;;;;;;;11.60;4.82;;;;;;;25.57;63.11;101615.50;5112674;28;20061;-76
2023/07/17 07:58:48;;;;;;;12.57;4.72;;;;;;;26.41;59.52;101609.28;5112674;28;20411;-75
2023/07/17 08:01:13;;;;;;;13.60;5.32;;;;;;;27.29;57.65;101605.38;5111062;28;20037;-76
2023/07/17 08:03:40;;;;;;;10.23;5.03;;;;;;;26.52;57.86;101617.00;5112694;28;20020;-74
2023/07/17 08:09:27;;;;;;;11.77;5.55;;;;;;;25.79;62.37;101616.88;5112740;28;20046;-74
2023/07/17 08:15:14;;;;;;;10.90;5.35;;;;;;;25.22;62.05;101621.47;5112807;28;20349;-75
2023/07/17 08:17:39;;;;;;;10.77;4.65;;;;;;;25.46;61.95;101632.38;5112419;28;20055;-75
2023/07/17 08:20:06;;;;;;;11.17;4.70;;;;;;;26.92;58.62;101633.03;5111693;28;20039;-75
2023/07/17 08:22:32;;;;;;;11.15;4.78;;;;;;;28.47;53.02;101617.16;5077321;28;20277;-76
2023/07/17 08:24:57;;;;;;;10.85;4.50;;;;;;;29.34;50.62;101619.09;5093934;28;20365;-76
2023/07/17 08:27:22;;;;;;;8.93;4.53;;;;;;;28.58;50.64;101621.25;5093547;28;20067;-76
2023/07/17 08:33:11;;;;;;;10.15;4.75;;;;;;;29.58;50.33;101629.69;5112593;28;20042;-75
2023/07/17 08:35:36;;;;;;;12.23;4.85;;;;;;;30.01;45.06;101637.16;5094151;28;20507;-75
2023/07/17 08:38:02;;;;;;;9.32;4.35;;;;;;;29.93;44.08;101641.53;5093178;28;20044;-77
2023/07/17 08:40:27;;;;;;;12.35;4.45;;;;;;;30.86;42.38;101632.59;5093811;28;20038;-76
2023/07/17 08:46:15;;;;;;;5.90;4.30;;;;;;;32.72;40.54;101652.28;5112456;28;20482;-76
2023/07/17 08:48:40;;;;;;;10.60;4.80;;;;;;;32.54;39.79;101648.09;5093639;28;20035;-75
2023/07/17 08:51:09;;;;;;;10.90;4.45;;;;;;;32.21;39.26;101646.13;5111250;28;20047;-75
2023/07/17 08:57:02;;;;;;;10.60;4.60;;;;;;;29.92;43.67;101639.91;5111279;28;20611;-75
2023/07/17 08:59:29;;;;;;;7.47;4.72;;;;;;;29.38;43.00;101644.88;5111767;28;20054;-75
2023/07/17 09:01:55;;;;;;;11.45;4.82;;;;;;;27.08;46.05;101634.38;5111898;28;20027;-76
2023/07/17 09:04:21;;;;;;;10.13;4.85;;;;;;;26.44;51.12;101639.66;5093071;28;20042;-75
2023/07/17 09:06:46;;;;;;;14.90;4.55;;;;;;;27.12;48.48;101638.94;5111790;28;20027;-75
2023/07/17 09:09:12;;;;;;;9.50;4.90;;;;;;;27.59;46.98;101642.34;5110864;28;20580;-75
2023/07/17 09:14:59;;;;;;;10.38;4.53;;;;;;;29.96;42.26;101643.66;5115071;28;20089;-75
2023/07/17 09:17:26;;;;;;;10.37;4.40;;;;;;;29.04;43.21;101644.78;5115496;28;20047;-76
2023/07/17 09:19:51;;;;;;;11.77;4.18;;;;;;;27.76;44.79;101633.47;5115205;28;20762;-75
2023/07/17 09:22:16;;;;;;;10.30;4.10;;;;;;;27.72;45.29;101649.75;5114457;28;20044;-77
2023/07/17 09:24:42;;;;;;;6.20;3.63;;;;;;;27.50;45.63;101635.13;5115301;28;20476;-76
2023/07/17 09:27:07;;;;;;;7.97;4.13;;;;;;;28.85;43.82;101645.03;5096049;28;20334;-75
2023/07/17 09:29:33;;;;;;;9.30;3.92;;;;;;;30.75;40.13;101645.16;5096871;28;20068;-75
2023/07/17 09:32:18;;;;;;;7.80;4.05;;;;;;;32.51;39.32;101651.53;5096916;28;20463;-75
2023/07/17 09:34:50;;;;;;;8.45;3.75;;;;;;;33.18;36.18;101652.97;5114304;28;20487;-77
2023/07/17 09:37:15;;;;;;;7.10;4.17;;;;;;;31.60;34.75;101639.50;5096805;28;20027;-74
2023/07/17 09:39:40;;;;;;;9.13;3.83;;;;;;;29.12;39.61;101642.06;5114205;28;20047;-75
2023/07/17 09:42:22;;;;;;;8.27;3.33;;;;;;;27.64;43.75;101634.00;5115040;28;20444;-75
2023/07/17 09:44:49;;;;;;;9.07;4.35;;;;;;;26.99;45.04;101639.75;5114324;28;20538;-76
2023/07/17 09:47:14;;;;;;;11.07;4.15;;;;;;;26.74;48.07;101640.22;5114691;28;20067;-75
2023/07/17 09:49:40;;;;;;;9.48;4.13;;;;;;;26.34;47.70;101645.34;5096465;28;20063;-74
2023/07/17 09:52:06;;;;;;;9.27;4.07;;;;;;;25.71;47.86;101650.41;5114086;28;20075;-75
2023/07/17 09:54:33;;;;;;;8.05;4.13;;;;;;;25.18;50.17;101650.53;5114812;28;20391;-76
2023/07/17 10:00:23;;;;;;;7.47;3.95;;;;;;;25.06;53.23;101647.38;5115034;28;20066;-76
2023/07/17 10:02:59;;;;;;;7.25;3.78;;;;;;;25.74;51.50;101641.59;5095851;28;20476;-76
2023/07/17 10:05:25;;;;;;;10.52;3.80;;;;;;;25.25;49.54;101646.31;5114660;28;20102;-76
2023/07/17 10:07:52;;;;;;;9.45;3.97;;;;;;;25.17;49.72;101646.16;5114474;28;20914;-76
2023/07/17 10:10:17;;;;;;;8.77;3.75;;;;;;;25.44;51.64;101649.06;5095679;28;20047;-75
2023/07/17 10:12:44;;;;;;;9.10;3.85;;;;;;;25.40;49.58;101647.22;5096180;28;20039;-76
2023/07/17 10:15:11;;;;;;;8.30;3.58;;;;;;;25.13;49.81;101637.69;5095601;28;20035;-75
2023/07/17 10:17:37;;;;;;;9.43;4.20;;;;;;;25.35;51.76;101645.38;5114277;28;20506;-76
2023/07/17 10:20:10;;;;;;;8.85;3.90;;;;;;;25.50;52.36;101639.72;5114032;28;20023;-77
2023/07/17 10:22:41;;;;;;;7.18;3.78;;;;;;;25.45;51.78;101634.31;5113878;28;20042;-75
2023/07/17 10:25:18;;;;;;;9.88;3.72;;;;;;;24.81;52.18;101642.97;5095314;28;20110;-76
2023/07/17 10:27:46;;;;;;;8.40;3.50;;;;;;;24.90;50.21;101647.53;5095234;28;20040;-77
2023/07/17 10:30:23;;;;;;;6.18;3.60;;;;;;;25.04;50.62;101649.59;5095977;28;20068;-75
2023/07/17 10:33:02;;;;;;;7.30;3.92;;;;;;;24.69;49.95;101641.47;5095221;28;20039;-75
2023/07/17 10:35:50;;;;;;;7.75;3.88;;;;;;;25.55;48.92;101647.84;5095876;28;20055;-76
2023/07/17 10:41:37;;;;;;;7.63;4.22;;;;;;;26.37;45.74;101650.22;5114362;28;20051;-75
2023/07/17 10:44:08;;;;;;;8.82;3.90;;;;;;;25.96;46.86;101660.16;5095164;28;20027;-75
2023/07/17 10:46:37;;;;;;;6.30;3.83;;;;;;;25.66;47.08;101640.28;5113825;28;20537;-74
2023/07/17 10:49:11;;;;;;;10.18;4.03;;;;;;;25.55;47.39;101644.31;5113767;28;20038;-76
2023/07/17 10:51:40;;;;;;;8.48;4.20;;;;;;;25.09;49.30;101644.88;5113148;28;20502;-75
2023/07/17 10:54:06;;;;;;;6.68;3.97;;;;;;;24.67;49.82;101648.31;5113938;28;20403;-77
2023/07/17 10:56:31;;;;;;;7.95;4.05;;;;;;;25.14;49.61;101639.34;5094804;28;20044;-75
2023/07/17 10:58:57;;;;;;;8.23;4.10;;;;;;;25.72;48.67;101632.84;5095429;28;20027;-76
2023/07/17 11:01:22;;;;;;;7.63;3.55;;;;;;;25.81;47.32;101629.16;5095339;28;20031;-76
2023/07/17 11:03:48;;;;;;;8.73;4.20;;;;;;;25.58;47.84;101628.09;5113121;28;20162;-75
2023/07/17 11:06:18;;;;;;;7.60;3.97;;;;;;;25.64;47.07;101640.59;5113779;28;20045;-77
2023/07/17 11:08:48;;;;;;;9.00;4.15;;;;;;;25.71;47.86;101640.25;5094618;28;20043;-76
2023/07/17 11:11:13;;;;;;;8.88;3.60;;;;;;;26.05;45.54;101628.25;5095364;28;20055;-78
2023/07/17 11:13:39;;;;;;;9.77;4.43;;;;;;;25.83;49.29;101639.81;5113563;28;20082;-76
2023/07/17 11:16:06;;;;;;;7.60;3.70;;;;;;;25.93;47.30;101628.69;5094648;28;20035;-76
2023/07/17 11:18:31;;;;;;;6.18;3.78;;;;;;;25.85;48.08;101624.69;5095202;28;20126;-76
2023/07/17 11:20:56;;;;;;;6.83;3.70;;;;;;;25.30;45.97;101627.09;5112666;28;20122;-76
2023/07/17 11:23:22;;;;;;;6.10;3.57;;;;;;;24.99;47.50;101636.78;5113472;28;20265;-77
2023/07/17 11:25:49;;;;;;;7.47;3.75;;;;;;;24.83;49.87;101630.63;5112872;28;20277;-77
2023/07/17 11:31:36;;;;;;;6.22;3.90;;;;;;;25.08;48.88;101639.69;5113648;28;20522;-76
2023/07/17 11:34:12;;;;;;;7.38;4.00;;;;;;;24.86;47.87;101646.47;5112527;28;20032;-75
2023/07/17 11:36:39;;;;;;;8.38;3.85;;;;;;;24.41;48.92;101645.00;5113245;28;20479;-76
2023/07/17 11:39:10;;;;;;;8.50;4.03;;;;;;;24.07;48.71;101634.88;5112211;28;20488;-76
2023/07/17 11:41:45;;;;;;;15.38;5.10;;;;;;;23.93;51.56;101628.41;5113045;28;20019;-76
2023/07/17 11:44:10;;;;;;;6.70;4.18;;;;;;;23.89;51.68;101632.00;5094137;28;20127;-76
2023/07/17 11:46:35;;;;;;;8.10;4.13;;;;;;;23.94;55.23;101637.41;5094835;28;20459;-76
2023/07/17 11:49:01;;;;;;;7.43;4.30;;;;;;;23.88;54.44;101646.75;5094632;28;20492;-76
2023/07/17 11:51:26;;;;;;;9.25;4.93;;;;;;;23.52;58.17;101643.41;5112236;28;20051;-76
2023/07/17 11:53:55;;;;;;;10.82;4.70;;;;;;;23.54;58.21;101635.75;5094636;28;20387;-77
2023/07/17 11:56:33;;;;;;;11.40;4.60;;;;;;;24.51;54.98;101646.81;5111971;28;20048;-77
2023/07/17 12:02:20;;;;;;;6.93;4.13;;;;;;;25.07;53.13;101641.63;5113071;28;20407;-75
2023/07/17 12:04:45;;;;;;;9.48;5.63;;;;;;;24.89;55.02;101651.38;5094460;28;20024;-75
2023/07/17 12:07:18;;;;;;;12.63;5.57;;;;;;;24.63;56.03;101644.53;5094412;28;20031;-76
2023/07/17 12:09:46;;;;;;;7.90;4.95;;;;;;;24.75;53.97;101646.88;5093775;28;20293;-75
2023/07/17 12:12:11;;;;;;;8.27;5.13;;;;;;;24.56;54.27;101635.84;5112522;28;20020;-76
2023/07/17 12:14:36;;;;;;;8.77;5.55;;;;;;;24.45;54.58;101632.41;5093895;28;20039;-76
2023/07/17 12:17:02;;;;;;;9.13;4.53;;;;;;;24.46;53.89;101630.47;5094247;28;20019;-76
2023/07/17 12:19:27;;;;;;;8.93;5.20;;;;;;;24.53;54.02;101644.63;5112249;28;20467;-77
2023/07/17 12:21:53;;;;;;;12.13;5.03;;;;;;;24.56;55.02;101630.38;5111893;28;20036;-76
2023/07/17 12:24:19;;;;;;;8.98;4.90;;;;;;;24.93;52.07;101636.00;5094076;28;20356;-75
2023/07/17 12:26:45;;;;;;;10.38;4.63;;;;;;;25.14;49.91;101631.13;5111539;28;21668;-76
2023/07/17 12:29:10;;;;;;;8.77;4.07;;;;;;;24.87;51.89;101630.88;5094060;28;20119;-77
2023/07/17 12:31:36;;;;;;;9.45;4.18;;;;;;;24.73;52.04;101624.47;5111752;28;20035;-75
2023/07/17 12:34:01;;;;;;;8.40;3.90;;;;;;;24.58;51.05;101620.78;5112002;28;20118;-75
2023/07/17 12:36:26;;;;;;;7.43;4.70;;;;;;;24.35;51.65;101613.34;5093951;28;20077;-76
2023/07/17 12:38:55;;;;;;;10.00;4.40;;;;;;;24.55;50.42;101620.53;5093556;28;20097;-75
2023/07/17 12:41:23;;;;;;;12.68;4.50;;;;;;;24.97;50.07;101615.16;5112282;28;20285;-76
2023/07/17 12:43:48;;;;;;;10.05;4.05;;;;;;;26.20;50.38;101606.84;5111274;28;20071;-76
2023/07/17 12:46:14;;;;;;;7.40;4.80;;;;;;;27.18;46.98;101620.44;5111684;28;20051;-77
2023/07/17 12:48:39;;;;;;;7.70;4.90;;;;;;;26.51;46.19;101617.31;5112078;28;20297;-75
2023/07/17 12:51:04;;;;;;;6.63;4.30;;;;;;;26.33;50.62;101618.19;5093207;28;20039;-76
2023/07/17 12:53:30;;;;;;;6.73;3.77;;;;;;;27.00;45.16;101608.44;5093887;28;20020;-75
2023/07/17 12:55:57;;;;;;;6.55;4.03;;;;;;;26.33;46.89;101615.44;5111352;28;20378;-77
2023/07/17 12:58:22;;;;;;;9.05;3.97;;;;;;;26.00;48.89;101611.84;5112296;28;20433;-74
2023/07/17 13:04:09;;;;;;;8.07;4.55;;;;;;;26.50;48.86;101632.16;5112055;28;20112;-75
2023/07/17 13:06:34;;;;;;;8.00;4.18;;;;;;;26.90;45.22;101624.28;5093788;28;20119;-75
2023/07/17 13:08:59;;;;;;;5.93;3.92;;;;;;;27.02;45.85;101616.38;5093186;28;20122;-76
2023/07/17 13:11:25;;;;;;;8.40;3.97;;;;;;;26.95;44.55;101616.75;5093849;28;20027;-75
2023/07/17 13:13:50;;;;;;;5.88;3.60;;;;;;;26.44;45.72;101616.91;5093035;28;20097;-76
2023/07/17 13:16:16;;;;;;;6.68;3.78;;;;;;;25.46;48.42;101646.06;5093697;28;20028;-75
2023/07/17 13:18:41;;;;;;;7.97;3.50;;;;;;;24.21;51.72;101632.28;5111796;28;20475;-74
2023/07/17 13:21:07;;;;;;;6.30;3.17;;;;;;;22.85;55.30;101634.66;5092867;28;20557;-75
2023/07/17 13:23:32;;;;;;;7.57;3.58;;;;;;;22.35;57.67;101646.41;5093453;28;20365;-74
2023/07/17 13:25:58;;;;;;;6.30;3.72;;;;;;;22.35;58.29;101643.69;5092913;28;20425;-75
2023/07/17 13:28:23;;;;;;;5.60;3.43;;;;;;;22.28;61.19;101648.59;5093166;28;20034;-76
2023/07/17 13:30:48;;;;;;;7.00;3.60;;;;;;;22.41;60.84;101637.13;5093341;28;20289;-76
2023/07/17 13:33:13;;;;;;;4.80;3.05;;;;;;;22.61;60.05;101628.94;5110752;28;20034;-76
2023/07/17 13:35:39;;;;;;;5.40;3.07;;;;;;;22.61;59.21;101631.66;5093288;28;20020;-76
2023/07/17 13:38:04;;;;;;;5.35;3.45;;;;;;;22.77;60.83;101644.16;5092618;28;20285;-75
2023/07/17 13:40:30;;;;;;;6.72;3.22;;;;;;;22.96;59.97;101643.63;5111390;28;20019;-75
2023/07/17 13:42:55;;;;;;;6.97;3.67;;;;;;;22.82;60.41;101643.38;5111670;28;20055;-76
2023/07/17 13:45:21;;;;;;;9.05;3.38;;;;;;;22.67;60.46;101646.94;5092495;28;20118;-76
2023/07/17 13:47:46;;;;;;;6.82;3.42;;;;;;;22.30;60.00;101651.88;5093124;28;20027;-76
2023/07/17 13:50:12;;;;;;;7.65;4.28;;;;;;;21.74;63.94;101651.78;5110349;28;20452;-75
2023/07/17 13:52:37;;;;;;;8.50;4.07;;;;;;;21.78;62.97;101650.97;5111241;28;20510;-76
2023/07/17 13:55:03;;;;;;;5.80;3.28;;;;;;;21.39;64.23;101656.00;5111169;28;20028;-77
2023/07/17 13:57:29;;;;;;;8.60;4.70;;;;;;;21.29;66.01;101664.94;5092450;28;20044;-76
2023/07/17 13:59:54;;;;;;;7.77;4.10;;;;;;;21.05;68.33;101677.28;5113844;28;20035;-77
2023/07/17 14:02:20;;;;;;;8.50;4.10;;;;;;;20.76;72.25;101686.91;5113721;28;20285;-76
2023/07/17 14:08:07;;;;;;;8.80;4.35;;;;;;;20.99;71.71;101672.91;5114720;28;20043;-75
2023/07/17 14:10:33;;;;;;;7.10;3.90;;;;;;;21.27;71.20;101672.56;5114477;28;20023;-75
2023/07/17 14:12:58;;;;;;;8.65;3.92;;;;;;;21.50;70.80;101665.84;5113877;28;20277;-74
2023/07/17 14:15:23;;;;;;;8.52;4.38;;;;;;;21.95;70.39;101667.03;5114230;28;20081;-74
2023/07/17 14:17:48;;;;;;;8.00;4.10;;;;;;;22.52;67.36;101666.00;5114367;28;20470;-75
2023/07/17 14:20:14;;;;;;;5.60;4.00;;;;;;;23.07;64.62;101681.50;5095520;28;20342;-76
2023/07/17 14:22:39;;;;;;;5.93;3.35;;;;;;;23.33;62.83;101682.25;5096224;28;20114;-77
2023/07/17 14:25:05;;;;;;;7.15;3.88;;;;;;;23.14;63.51;101689.41;5095298;28;20155;-76
2023/07/17 14:27:30;;;;;;;9.57;4.45;;;;;;;22.80;62.52;101694.63;5114220;28;20066;-77
2023/07/17 14:29:55;;;;;;;7.80;3.93;;;;;;;22.37;62.18;101691.38;5114267;28;20107;-75
2023/07/17 14:32:21;;;;;;;8.83;4.50;;;;;;;22.29;63.95;101700.09;5113428;28;20676;-76
2023/07/17 14:34:46;;;;;;;8.27;4.20;;;;;;;22.07;63.99;101688.63;5114224;28;20027;-76
2023/07/17 14:37:11;;;;;;;8.93;4.00;;;;;;;22.25;64.43;101679.91;5113409;28;20338;-76
2023/07/17 14:39:37;;;;;;;7.28;3.83;;;;;;;22.53;63.61;101682.09;5095824;28;20388;-76
2023/07/17 14:42:03;;;;;;;6.37;3.80;;;;;;;22.52;62.50;101704.19;5095780;28;20395;-76
2023/07/17 14:44:28;;;;;;;7.32;4.32;;;;;;;22.34;61.04;101704.75;5113136;28;20063;-76
2023/07/17 14:46:53;;;;;;;5.70;3.90;;;;;;;21.87;62.75;101709.25;5114463;28;20059;-77
2023/07/17 14:49:19;;;;;;;7.77;4.20;;;;;;;21.69;64.62;101712.47;5113011;28;20680;-76
2023/07/17 14:51:44;;;;;;;5.75;3.83;;;;;;;21.51;66.77;101712.94;5114102;28;20048;-75
2023/07/17 14:54:10;;;;;;;5.43;3.53;;;;;;;21.41;66.10;101712.91;5095607;28;20467;-76
2023/07/17 14:56:35;;;;;;;6.73;3.73;;;;;;;21.30;66.72;101723.72;5095156;28;20289;-76
2023/07/17 14:59:00;;;;;;;7.05;4.00;;;;;;;21.26;67.95;101729.94;5095352;28;20792;-76